sensor_id;sensor_type;location;lat;lon;timestamp;pressure;altitude;pressure_sealevel;temperature;humidity
32081;BME280;18593;51.426;7.030;2023-04-30T00:01:03;101243.13;;;10.99;62.89
32081;BME280;18593;51.426;7.030;2023-04-30T00:03:30;101240.47;;;10.99;62.81
32081;BME280;18593;51.426;7.030;2023-04-30T00:05:57;101238.78;;;10.98;62.76
32081;BME280;18593;51.426;7.030;2023-04-30T00:08:24;101247.22;;;10.95;62.66
32081;BME280;18593;51.426;7.030;2023-04-30T00:10:51;101243.72;;;10.94;62.64
32081;BME280;18593;51.426;7.030;2023-04-30T00:13:20;101247.22;;;10.95;62.56
32081;BME280;18593;51.426;7.030;2023-04-30T00:15:47;101241.88;;;10.95;62.66
32081;BME280;18593;51.426;7.030;2023-04-30T00:18:15;101238.19;;;10.96;62.83
32081;BME280;18593;51.426;7.030;2023-04-30T00:20:42;101239.19;;;10.95;62.82
32081;BME280;18593;51.426;7.030;2023-04-30T00:23:09;101244.75;;;10.93;62.64
32081;BME280;18593;51.426;7.030;2023-04-30T00:25:36;101239.78;;;10.90;62.58
32081;BME280;18593;51.426;7.030;2023-04-30T00:28:04;101251.03;;;10.86;62.41
32081;BME280;18593;51.426;7.030;2023-04-30T00:30:32;101251.25;;;10.84;62.40
32081;BME280;18593;51.426;7.030;2023-04-30T00:33:00;101253.66;;;10.79;62.19
32081;BME280;18593;51.426;7.030;2023-04-30T00:35:27;101260.19;;;10.76;62.26
32081;BME280;18593;51.426;7.030;2023-04-30T00:37:55;101262.41;;;10.73;62.28
32081;BME280;18593;51.426;7.030;2023-04-30T00:40:22;101253.19;;;10.69;62.20
32081;BME280;18593;51.426;7.030;2023-04-30T00:42:49;101264.03;;;10.67;62.39
32081;BME280;18593;51.426;7.030;2023-04-30T00:45:17;101257.63;;;10.62;62.21
32081;BME280;18593;51.426;7.030;2023-04-30T00:47:48;101255.72;;;10.55;62.30
32081;BME280;18593;51.426;7.030;2023-04-30T00:50:15;101255.28;;;10.52;62.34
32081;BME280;18593;51.426;7.030;2023-04-30T00:52:43;101259.16;;;10.49;62.40
32081;BME280;18593;51.426;7.030;2023-04-30T00:55:11;101265.06;;;10.45;62.23
32081;BME280;18593;51.426;7.030;2023-04-30T00:57:39;101260.31;;;10.40;62.30
32081;BME280;18593;51.426;7.030;2023-04-30T01:00:08;101260.31;;;10.40;62.02
32081;BME280;18593;51.426;7.030;2023-04-30T01:02:36;101264.72;;;10.33;62.20
32081;BME280;18593;51.426;7.030;2023-04-30T01:05:06;101265.13;;;10.30;62.17
32081;BME280;18593;51.426;7.030;2023-04-30T01:07:35;101260.16;;;10.27;62.11
32081;BME280;18593;51.426;7.030;2023-04-30T01:10:04;101253.34;;;10.24;62.12
32081;BME280;18593;51.426;7.030;2023-04-30T01:12:40;101253.34;;;10.24;62.31
32081;BME280;18593;51.426;7.030;2023-04-30T01:15:21;101251.06;;;10.21;62.40
32081;BME280;18593;51.426;7.030;2023-04-30T01:17:55;101252.25;;;10.19;62.43
32081;BME280;18593;51.426;7.030;2023-04-30T01:20:28;101244.44;;;10.17;62.53
32081;BME280;18593;51.426;7.030;2023-04-30T01:23:06;101251.38;;;10.12;62.82
32081;BME280;18593;51.426;7.030;2023-04-30T01:26:05;101257.88;;;10.09;62.46
32081;BME280;18593;51.426;7.030;2023-04-30T01:28:35;101250.28;;;10.06;62.34
32081;BME280;18593;51.426;7.030;2023-04-30T01:31:11;101244.69;;;10.01;62.27
32081;BME280;18593;51.426;7.030;2023-04-30T01:33:39;101244.22;;;9.97;62.42
32081;BME280;18593;51.426;7.030;2023-04-30T01:36:44;101247.47;;;9.93;62.29
32081;BME280;18593;51.426;7.030;2023-04-30T01:39:47;101239.00;;;9.89;62.25
32081;BME280;18593;51.426;7.030;2023-04-30T01:42:20;101242.88;;;9.87;62.08
32081;BME280;18593;51.426;7.030;2023-04-30T01:45:02;101238.28;;;9.80;62.26
32081;BME280;18593;51.426;7.030;2023-04-30T01:47:39;101244.00;;;9.77;62.27
32081;BME280;18593;51.426;7.030;2023-04-30T01:50:19;101239.03;;;9.74;62.39
32081;BME280;18593;51.426;7.030;2023-04-30T01:52:53;101242.09;;;9.71;62.25
32081;BME280;18593;51.426;7.030;2023-04-30T01:55:35;101243.28;;;9.69;62.20
32081;BME280;18593;51.426;7.030;2023-04-30T01:58:06;101249.97;;;9.65;62.43
32081;BME280;18593;51.426;7.030;2023-04-30T02:00:36;101256.31;;;9.64;62.29
32081;BME280;18593;51.426;7.030;2023-04-30T02:03:04;101249.53;;;9.61;62.19
32081;BME280;18593;51.426;7.030;2023-04-30T02:05:31;101255.25;;;9.58;62.15
32081;BME280;18593;51.426;7.030;2023-04-30T02:07:59;101243.94;;;9.56;62.23
32081;BME280;18593;51.426;7.030;2023-04-30T02:10:27;101242.47;;;9.53;62.29
32081;BME280;18593;51.426;7.030;2023-04-30T02:12:55;101252.66;;;9.50;62.32
32081;BME280;18593;51.426;7.030;2023-04-30T02:15:22;101253.06;;;9.47;62.27
32081;BME280;18593;51.426;7.030;2023-04-30T02:17:51;101243.59;;;9.44;62.22
32081;BME280;18593;51.426;7.030;2023-04-30T02:20:18;101240.44;;;9.41;62.41
32081;BME280;18593;51.426;7.030;2023-04-30T02:22:46;101248.63;;;9.39;62.44
32081;BME280;18593;51.426;7.030;2023-04-30T02:25:13;101262.13;;;9.38;62.40
32081;BME280;18593;51.426;7.030;2023-04-30T02:27:40;101252.88;;;9.34;62.13
32081;BME280;18593;51.426;7.030;2023-04-30T02:30:09;101255.72;;;9.32;62.13
32081;BME280;18593;51.426;7.030;2023-04-30T02:32:36;101254.22;;;9.29;62.26
32081;BME280;18593;51.426;7.030;2023-04-30T02:35:05;101254.44;;;9.28;62.39
32081;BME280;18593;51.426;7.030;2023-04-30T02:37:33;101255.41;;;9.27;62.55
32081;BME280;18593;51.426;7.030;2023-04-30T02:40:00;101252.31;;;9.23;62.42
32081;BME280;18593;51.426;7.030;2023-04-30T02:42:27;101254.31;;;9.21;62.32
32081;BME280;18593;51.426;7.030;2023-04-30T02:44:55;101254.50;;;9.20;62.37
32081;BME280;18593;51.426;7.030;2023-04-30T02:47:22;101255.88;;;9.16;62.41
32081;BME280;18593;51.426;7.030;2023-04-30T02:49:49;101256.06;;;9.14;62.36
32081;BME280;18593;51.426;7.030;2023-04-30T02:52:18;101256.41;;;9.11;62.45
32081;BME280;18593;51.426;7.030;2023-04-30T02:54:45;101251.91;;;9.12;62.61
32081;BME280;18593;51.426;7.030;2023-04-30T02:57:12;101254.78;;;9.10;62.42
32081;BME280;18593;51.426;7.030;2023-04-30T02:59:40;101252.47;;;9.07;62.52
32081;BME280;18593;51.426;7.030;2023-04-30T03:02:10;101253.47;;;9.06;62.53
32081;BME280;18593;51.426;7.030;2023-04-30T03:04:38;101252.03;;;9.03;62.57
32081;BME280;18593;51.426;7.030;2023-04-30T03:07:05;101251.19;;;9.03;62.77
32081;BME280;18593;51.426;7.030;2023-04-30T03:09:35;101246.88;;;9.02;62.62
32081;BME280;18593;51.426;7.030;2023-04-30T03:12:03;101238.88;;;9.02;62.89
32081;BME280;18593;51.426;7.030;2023-04-30T03:14:30;101247.88;;;9.01;63.00
32081;BME280;18593;51.426;7.030;2023-04-30T03:16:58;101240.09;;;8.99;62.62
32081;BME280;18593;51.426;7.030;2023-04-30T03:19:25;101244.75;;;8.97;63.03
32081;BME280;18593;51.426;7.030;2023-04-30T03:21:53;101243.91;;;8.97;62.96
32081;BME280;18593;51.426;7.030;2023-04-30T03:24:20;101238.78;;;8.95;62.95
32081;BME280;18593;51.426;7.030;2023-04-30T03:26:49;101239.81;;;8.94;62.92
32081;BME280;18593;51.426;7.030;2023-04-30T03:29:17;101244.47;;;8.92;62.85
32081;BME280;18593;51.426;7.030;2023-04-30T03:31:44;101242.81;;;8.91;62.98
32081;BME280;18593;51.426;7.030;2023-04-30T03:34:12;101249.16;;;8.90;62.90
32081;BME280;18593;51.426;7.030;2023-04-30T03:36:39;101250.16;;;8.89;63.04
32081;BME280;18593;51.426;7.030;2023-04-30T03:39:06;101248.50;;;8.88;62.86
32081;BME280;18593;51.426;7.030;2023-04-30T03:41:34;101243.53;;;8.85;62.81
32081;BME280;18593;51.426;7.030;2023-04-30T03:44:03;101239.41;;;8.83;62.67
32081;BME280;18593;51.426;7.030;2023-04-30T03:46:31;101239.78;;;8.80;62.66
32081;BME280;18593;51.426;7.030;2023-04-30T03:48:58;101249.59;;;8.79;62.71
32081;BME280;18593;51.426;7.030;2023-04-30T03:51:25;101239.31;;;8.76;62.80
32081;BME280;18593;51.426;7.030;2023-04-30T03:53:53;101250.97;;;8.75;62.77
32081;BME280;18593;51.426;7.030;2023-04-30T03:56:21;101241.50;;;8.72;62.81
32081;BME280;18593;51.426;7.030;2023-04-30T03:58:48;101255.63;;;8.73;62.77
32081;BME280;18593;51.426;7.030;2023-04-30T04:01:17;101249.03;;;8.69;62.74
32081;BME280;18593;51.426;7.030;2023-04-30T04:03:44;101253.69;;;8.67;62.74
32081;BME280;18593;51.426;7.030;2023-04-30T04:06:11;101258.16;;;8.66;62.64
32081;BME280;18593;51.426;7.030;2023-04-30T04:08:38;101260.19;;;8.64;62.76
32081;BME280;18593;51.426;7.030;2023-04-30T04:11:08;101258.72;;;8.62;62.70
32081;BME280;18593;51.426;7.030;2023-04-30T04:13:35;101260.72;;;8.60;62.76
32081;BME280;18593;51.426;7.030;2023-04-30T04:16:02;101261.72;;;8.59;62.87
32081;BME280;18593;51.426;7.030;2023-04-30T04:18:31;101257.25;;;8.59;62.87
32081;BME280;18593;51.426;7.030;2023-04-30T04:20:59;101259.91;;;8.59;63.19
32081;BME280;18593;51.426;7.030;2023-04-30T04:23:28;101259.91;;;8.59;63.26
32081;BME280;18593;51.426;7.030;2023-04-30T04:25:55;101259.91;;;8.59;63.67
32081;BME280;18593;51.426;7.030;2023-04-30T04:28:23;101257.06;;;8.61;63.43
32081;BME280;18593;51.426;7.030;2023-04-30T04:30:52;101262.19;;;8.62;63.91
32081;BME280;18593;51.426;7.030;2023-04-30T04:33:19;101264.69;;;8.64;64.00
32081;BME280;18593;51.426;7.030;2023-04-30T04:35:48;101258.38;;;8.65;64.01
32081;BME280;18593;51.426;7.030;2023-04-30T04:38:15;101269.63;;;8.67;64.04
32081;BME280;18593;51.426;7.030;2023-04-30T04:40:50;101264.13;;;8.68;64.27
32081;BME280;18593;51.426;7.030;2023-04-30T04:43:19;101271.75;;;8.71;64.50
32081;BME280;18593;51.426;7.030;2023-04-30T04:45:47;101272.22;;;8.75;64.82
32081;BME280;18593;51.426;7.030;2023-04-30T04:48:14;101271.59;;;8.88;64.65
32081;BME280;18593;51.426;7.030;2023-04-30T04:50:41;101272.00;;;8.99;64.76
32081;BME280;18593;51.426;7.030;2023-04-30T04:53:10;101268.34;;;9.15;64.81
32081;BME280;18593;51.426;7.030;2023-04-30T04:55:38;101275.34;;;9.31;64.91
32081;BME280;18593;51.426;7.030;2023-04-30T04:58:05;101270.84;;;9.46;64.64
32081;BME280;18593;51.426;7.030;2023-04-30T05:00:33;101281.47;;;9.61;64.50
32081;BME280;18593;51.426;7.030;2023-04-30T05:03:00;101287.66;;;9.76;64.27
32081;BME280;18593;51.426;7.030;2023-04-30T05:05:28;101274.84;;;9.87;63.91
32081;BME280;18593;51.426;7.030;2023-04-30T05:07:55;101278.88;;;9.97;63.67
32081;BME280;18593;51.426;7.030;2023-04-30T05:10:24;101282.63;;;10.03;63.31
32081;BME280;18593;51.426;7.030;2023-04-30T05:12:51;101283.16;;;10.13;63.53
32081;BME280;18593;51.426;7.030;2023-04-30T05:15:18;101284.69;;;10.22;63.23
32081;BME280;18593;51.426;7.030;2023-04-30T05:17:45;101289.28;;;10.28;63.23
32081;BME280;18593;51.426;7.030;2023-04-30T05:20:13;101275.84;;;10.37;63.59
32081;BME280;18593;51.426;7.030;2023-04-30T05:22:40;101280.03;;;10.46;63.43
32081;BME280;18593;51.426;7.030;2023-04-30T05:25:08;101278.91;;;10.55;63.18
32081;BME280;18593;51.426;7.030;2023-04-30T05:27:37;101281.41;;;10.63;63.11
32081;BME280;18593;51.426;7.030;2023-04-30T05:30:05;101281.50;;;10.70;62.70
32081;BME280;18593;51.426;7.030;2023-04-30T05:32:34;101288.94;;;10.74;62.59
32081;BME280;18593;51.426;7.030;2023-04-30T05:35:01;101287.53;;;10.78;62.63
32081;BME280;18593;51.426;7.030;2023-04-30T05:37:28;101296.59;;;10.84;62.70
32081;BME280;18593;51.426;7.030;2023-04-30T05:39:56;101289.00;;;10.88;62.67
32081;BME280;18593;51.426;7.030;2023-04-30T05:42:23;101290.94;;;10.94;62.49
32081;BME280;18593;51.426;7.030;2023-04-30T05:44:52;101299.81;;;11.01;62.54
32081;BME280;18593;51.426;7.030;2023-04-30T05:47:19;101294.91;;;11.04;62.36
32081;BME280;18593;51.426;7.030;2023-04-30T05:49:46;101306.66;;;11.10;62.31
32081;BME280;18593;51.426;7.030;2023-04-30T05:52:13;101300.75;;;11.15;62.43
32081;BME280;18593;51.426;7.030;2023-04-30T05:54:42;101295.84;;;11.18;62.36
32081;BME280;18593;51.426;7.030;2023-04-30T05:57:09;101298.94;;;11.22;62.16
32081;BME280;18593;51.426;7.030;2023-04-30T05:59:36;101303.28;;;11.23;62.23
32081;BME280;18593;51.426;7.030;2023-04-30T06:02:05;101297.16;;;11.29;62.85
32081;BME280;18593;51.426;7.030;2023-04-30T06:04:33;101307.84;;;11.35;62.36
32081;BME280;18593;51.426;7.030;2023-04-30T06:07:00;101303.78;;;11.40;62.61
32081;BME280;18593;51.426;7.030;2023-04-30T06:09:27;101306.31;;;11.48;62.43
32081;BME280;18593;51.426;7.030;2023-04-30T06:11:54;101301.38;;;11.51;62.10
32081;BME280;18593;51.426;7.030;2023-04-30T06:14:23;101296.03;;;11.51;62.08
32081;BME280;18593;51.426;7.030;2023-04-30T06:16:50;101301.81;;;11.55;61.96
32081;BME280;18593;51.426;7.030;2023-04-30T06:19:20;101295.66;;;11.61;62.51
32081;BME280;18593;51.426;7.030;2023-04-30T06:21:47;101289.97;;;11.71;62.29
32081;BME280;18593;51.426;7.030;2023-04-30T06:24:14;101290.44;;;11.81;62.36
32081;BME280;18593;51.426;7.030;2023-04-30T06:26:41;101297.09;;;11.92;61.91
32081;BME280;18593;51.426;7.030;2023-04-30T06:29:08;101298.34;;;11.96;61.68
32081;BME280;18593;51.426;7.030;2023-04-30T06:31:36;101291.41;;;12.08;62.05
32081;BME280;18593;51.426;7.030;2023-04-30T06:34:03;101294.50;;;12.18;61.46
32081;BME280;18593;51.426;7.030;2023-04-30T06:36:32;101292.69;;;12.25;60.74
32081;BME280;18593;51.426;7.030;2023-04-30T06:38:59;101290.44;;;12.35;60.72
32081;BME280;18593;51.426;7.030;2023-04-30T06:41:26;101292.53;;;12.47;60.84
32081;BME280;18593;51.426;7.030;2023-04-30T06:43:54;101291.31;;;12.56;60.15
32081;BME280;18593;51.426;7.030;2023-04-30T06:46:21;101290.47;;;12.62;60.47
32081;BME280;18593;51.426;7.030;2023-04-30T06:48:48;101294.41;;;12.73;60.47
32081;BME280;18593;51.426;7.030;2023-04-30T06:51:15;101293.59;;;12.85;60.65
32081;BME280;18593;51.426;7.030;2023-04-30T06:53:44;101290.28;;;12.97;60.31
32081;BME280;18593;51.426;7.030;2023-04-30T06:56:11;101283.47;;;13.07;59.60
32081;BME280;18593;51.426;7.030;2023-04-30T06:58:38;101293.75;;;13.17;59.48
32081;BME280;18593;51.426;7.030;2023-04-30T07:01:05;101292.75;;;13.25;58.67
32081;BME280;18593;51.426;7.030;2023-04-30T07:03:33;101281.84;;;13.33;58.22
32081;BME280;18593;51.426;7.030;2023-04-30T07:06:01;101280.59;;;13.42;58.40
32081;BME280;18593;51.426;7.030;2023-04-30T07:08:28;101283.66;;;13.52;58.43
32081;BME280;18593;51.426;7.030;2023-04-30T07:10:57;101276.19;;;13.61;57.88
32081;BME280;18593;51.426;7.030;2023-04-30T07:13:24;101284.00;;;13.69;57.65
32081;BME280;18593;51.426;7.030;2023-04-30T07:15:51;101275.72;;;13.77;57.18
32081;BME280;18593;51.426;7.030;2023-04-30T07:18:19;101289.31;;;13.82;56.95
32081;BME280;18593;51.426;7.030;2023-04-30T07:20:46;101285.78;;;13.88;56.65
32081;BME280;18593;51.426;7.030;2023-04-30T07:23:14;101279.78;;;13.93;56.33
32081;BME280;18593;51.426;7.030;2023-04-30T07:25:41;101276.47;;;13.98;56.45
32081;BME280;18593;51.426;7.030;2023-04-30T07:28:10;101283.69;;;13.97;56.22
32081;BME280;18593;51.426;7.030;2023-04-30T07:30:37;101277.22;;;14.05;56.34
32081;BME280;18593;51.426;7.030;2023-04-30T07:33:04;101275.94;;;14.14;56.38
32081;BME280;18593;51.426;7.030;2023-04-30T07:35:33;101278.81;;;14.19;55.64
32081;BME280;18593;51.426;7.030;2023-04-30T07:38:00;101284.97;;;14.26;55.67
32081;BME280;18593;51.426;7.030;2023-04-30T07:40:27;101269.69;;;14.27;54.59
32081;BME280;18593;51.426;7.030;2023-04-30T07:42:55;101273.78;;;14.29;55.40
32081;BME280;18593;51.426;7.030;2023-04-30T07:45:23;101281.00;;;14.35;55.08
32081;BME280;18593;51.426;7.030;2023-04-30T07:47:51;101275.34;;;14.43;55.59
32081;BME280;18593;51.426;7.030;2023-04-30T07:50:18;101273.91;;;14.54;56.50
32081;BME280;18593;51.426;7.030;2023-04-30T07:52:47;101283.94;;;14.65;56.57
32081;BME280;18593;51.426;7.030;2023-04-30T07:55:14;101280.75;;;14.75;55.33
32081;BME280;18593;51.426;7.030;2023-04-30T07:57:42;101281.75;;;14.81;55.56
32081;BME280;18593;51.426;7.030;2023-04-30T08:00:10;101276.28;;;14.87;54.58
32081;BME280;18593;51.426;7.030;2023-04-30T08:02:42;101283.34;;;14.88;53.65
32081;BME280;18593;51.426;7.030;2023-04-30T08:05:10;101284.59;;;14.86;53.60
32081;BME280;18593;51.426;7.030;2023-04-30T08:07:37;101282.50;;;14.88;54.00
32081;BME280;18593;51.426;7.030;2023-04-30T08:10:07;101279.16;;;14.92;53.74
32081;BME280;18593;51.426;7.030;2023-04-30T08:12:35;101285.13;;;14.94;53.43
32081;BME280;18593;51.426;7.030;2023-04-30T08:15:04;101282.81;;;14.98;53.75
32081;BME280;18593;51.426;7.030;2023-04-30T08:17:32;101289.38;;;15.02;53.92
32081;BME280;18593;51.426;7.030;2023-04-30T08:20:02;101284.47;;;14.99;52.91
32081;BME280;18593;51.426;7.030;2023-04-30T08:22:30;101287.16;;;14.99;53.28
32081;BME280;18593;51.426;7.030;2023-04-30T08:24:57;101281.56;;;15.01;53.74
32081;BME280;18593;51.426;7.030;2023-04-30T08:27:26;101281.72;;;15.06;53.67
32081;BME280;18593;51.426;7.030;2023-04-30T08:29:54;101276.94;;;15.08;53.57
32081;BME280;18593;51.426;7.030;2023-04-30T08:32:21;101277.41;;;15.05;52.38
32081;BME280;18593;51.426;7.030;2023-04-30T08:34:48;101285.78;;;14.90;51.97
32081;BME280;18593;51.426;7.030;2023-04-30T08:37:17;101281.44;;;14.64;51.59
32081;BME280;18593;51.426;7.030;2023-04-30T08:39:45;101281.66;;;14.62;53.27
32081;BME280;18593;51.426;7.030;2023-04-30T08:42:13;101287.03;;;14.62;53.14
32081;BME280;18593;51.426;7.030;2023-04-30T08:44:41;101287.44;;;14.66;53.77
32081;BME280;18593;51.426;7.030;2023-04-30T08:47:10;101288.63;;;14.70;53.32
32081;BME280;18593;51.426;7.030;2023-04-30T08:49:39;101280.59;;;14.70;54.63
32081;BME280;18593;51.426;7.030;2023-04-30T08:52:07;101279.28;;;14.79;54.29
32081;BME280;18593;51.426;7.030;2023-04-30T08:54:36;101278.81;;;14.82;53.47
32081;BME280;18593;51.426;7.030;2023-04-30T08:57:04;101283.75;;;14.85;54.47
32081;BME280;18593;51.426;7.030;2023-04-30T08:59:31;101282.28;;;14.89;54.10
32081;BME280;18593;51.426;7.030;2023-04-30T09:01:59;101277.28;;;14.93;54.37
32081;BME280;18593;51.426;7.030;2023-04-30T09:04:27;101282.00;;;14.98;53.27
32081;BME280;18593;51.426;7.030;2023-04-30T09:06:55;101273.34;;;14.96;52.01
32081;BME280;18593;51.426;7.030;2023-04-30T09:09:27;101275.81;;;14.97;53.30
32081;BME280;18593;51.426;7.030;2023-04-30T09:15:02;101272.63;;;15.07;53.17
32081;BME280;18593;51.426;7.030;2023-04-30T09:17:31;101269.94;;;15.07;52.30
32081;BME280;18593;51.426;7.030;2023-04-30T09:20:07;101263.31;;;15.09;52.92
32081;BME280;18593;51.426;7.030;2023-04-30T09:22:35;101268.28;;;15.06;51.88
32081;BME280;18593;51.426;7.030;2023-04-30T09:25:04;101264.78;;;15.05;52.29
32081;BME280;18593;51.426;7.030;2023-04-30T09:27:31;101263.34;;;15.03;51.61
32081;BME280;18593;51.426;7.030;2023-04-30T09:30:00;101255.75;;;15.00;51.99
32081;BME280;18593;51.426;7.030;2023-04-30T09:32:27;101254.53;;;14.96;52.80
32081;BME280;18593;51.426;7.030;2023-04-30T09:34:55;101249.56;;;14.99;54.32
32081;BME280;18593;51.426;7.030;2023-04-30T09:37:34;101245.16;;;15.05;53.28
32081;BME280;18593;51.426;7.030;2023-04-30T09:40:02;101247.84;;;15.05;52.54
32081;BME280;18593;51.426;7.030;2023-04-30T09:42:29;101247.19;;;15.09;52.66
32081;BME280;18593;51.426;7.030;2023-04-30T09:44:57;101250.47;;;15.11;53.37
32081;BME280;18593;51.426;7.030;2023-04-30T09:47:29;101241.72;;;15.16;52.71
32081;BME280;18593;51.426;7.030;2023-04-30T09:49:59;101241.50;;;15.17;52.79
32081;BME280;18593;51.426;7.030;2023-04-30T09:52:26;101238.75;;;15.24;52.75
32081;BME280;18593;51.426;7.030;2023-04-30T09:54:53;101239.81;;;15.23;52.42
32081;BME280;18593;51.426;7.030;2023-04-30T09:57:23;101227.78;;;15.26;51.55
32081;BME280;18593;51.426;7.030;2023-04-30T09:59:52;101222.25;;;15.20;52.21
32081;BME280;18593;51.426;7.030;2023-04-30T10:02:20;101229.88;;;15.24;52.62
32081;BME280;18593;51.426;7.030;2023-04-30T10:04:55;101230.94;;;15.23;51.02
32081;BME280;18593;51.426;7.030;2023-04-30T10:07:28;101229.72;;;15.18;50.79
32081;BME280;18593;51.426;7.030;2023-04-30T10:10:03;101223.75;;;15.16;50.83
32081;BME280;18593;51.426;7.030;2023-04-30T10:12:38;101228.91;;;15.18;51.24
32081;BME280;18593;51.426;7.030;2023-04-30T10:15:15;101230.75;;;15.17;51.12
32081;BME280;18593;51.426;7.030;2023-04-30T10:17:50;101226.44;;;15.16;50.18
32081;BME280;18593;51.426;7.030;2023-04-30T10:20:21;101223.81;;;15.10;50.68
32081;BME280;18593;51.426;7.030;2023-04-30T10:22:49;101213.47;;;15.13;51.12
32081;BME280;18593;51.426;7.030;2023-04-30T10:25:17;101213.22;;;15.15;51.45
32081;BME280;18593;51.426;7.030;2023-04-30T10:27:45;101221.06;;;15.16;51.42
32081;BME280;18593;51.426;7.030;2023-04-30T10:30:12;101210.53;;;15.15;50.30
32081;BME280;18593;51.426;7.030;2023-04-30T10:32:46;101205.41;;;15.13;49.72
32081;BME280;18593;51.426;7.030;2023-04-30T10:35:21;101207.84;;;15.15;49.95
32081;BME280;18593;51.426;7.030;2023-04-30T10:37:56;101208.44;;;15.17;50.53
32081;BME280;18593;51.426;7.030;2023-04-30T10:40:26;101210.69;;;15.20;50.66
32081;BME280;18593;51.426;7.030;2023-04-30T10:42:54;101197.63;;;15.24;51.73
32081;BME280;18593;51.426;7.030;2023-04-30T10:45:34;101204.06;;;15.23;49.55
32081;BME280;18593;51.426;7.030;2023-04-30T10:48:02;101185.44;;;15.21;49.39
32081;BME280;18593;51.426;7.030;2023-04-30T10:50:31;101191.22;;;15.25;49.79
32081;BME280;18593;51.426;7.030;2023-04-30T10:53:02;101180.91;;;15.22;48.31
32081;BME280;18593;51.426;7.030;2023-04-30T10:55:30;101185.59;;;15.26;50.32
32081;BME280;18593;51.426;7.030;2023-04-30T10:57:58;101179.31;;;15.32;49.33
32081;BME280;18593;51.426;7.030;2023-04-30T11:00:27;101188.44;;;15.31;48.81
32081;BME280;18593;51.426;7.030;2023-04-30T11:02:57;101182.25;;;15.31;48.56
32081;BME280;18593;51.426;7.030;2023-04-30T11:05:37;101174.78;;;15.33;48.54
32081;BME280;18593;51.426;7.030;2023-04-30T11:08:05;101171.19;;;15.39;48.36
32081;BME280;18593;51.426;7.030;2023-04-30T11:10:37;101168.75;;;15.37;48.21
32081;BME280;18593;51.426;7.030;2023-04-30T11:13:06;101170.38;;;15.38;48.20
32081;BME280;18593;51.426;7.030;2023-04-30T11:15:40;101170.38;;;15.38;47.67
32081;BME280;18593;51.426;7.030;2023-04-30T11:18:08;101153.44;;;15.38;47.37
32081;BME280;18593;51.426;7.030;2023-04-30T11:20:47;101163.38;;;15.37;47.72
32081;BME280;18593;51.426;7.030;2023-04-30T11:23:16;101161.69;;;15.36;47.41
32081;BME280;18593;51.426;7.030;2023-04-30T11:25:45;101176.94;;;15.42;47.81
32081;BME280;18593;51.426;7.030;2023-04-30T11:28:15;101161.41;;;15.44;47.58
32081;BME280;18593;51.426;7.030;2023-04-30T11:30:51;101166.91;;;15.50;48.25
32081;BME280;18593;51.426;7.030;2023-04-30T11:33:19;101150.94;;;15.55;47.31
32081;BME280;18593;51.426;7.030;2023-04-30T11:35:49;101156.91;;;15.57;47.65
32081;BME280;18593;51.426;7.030;2023-04-30T11:38:19;101146.97;;;15.57;47.14
32081;BME280;18593;51.426;7.030;2023-04-30T11:40:48;101139.50;;;15.59;46.91
32081;BME280;18593;51.426;7.030;2023-04-30T11:43:23;101140.41;;;15.53;47.30
32081;BME280;18593;51.426;7.030;2023-04-30T11:46:08;101144.72;;;15.54;47.41
32081;BME280;18593;51.426;7.030;2023-04-30T11:48:37;101146.16;;;15.57;47.01
32081;BME280;18593;51.426;7.030;2023-04-30T11:51:14;101151.53;;;15.57;46.81
32081;BME280;18593;51.426;7.030;2023-04-30T11:53:42;101147.72;;;15.46;45.43
32081;BME280;18593;51.426;7.030;2023-04-30T11:56:11;101139.22;;;15.49;45.89
32081;BME280;18593;51.426;7.030;2023-04-30T11:58:38;101145.53;;;15.55;47.40
32081;BME280;18593;51.426;7.030;2023-04-30T12:01:06;101150.94;;;15.55;46.61
32081;BME280;18593;51.426;7.030;2023-04-30T12:03:42;101148.69;;;15.52;46.26
32081;BME280;18593;51.426;7.030;2023-04-30T12:06:20;101141.09;;;15.49;46.24
32081;BME280;18593;51.426;7.030;2023-04-30T12:08:47;101141.53;;;15.45;45.52
32081;BME280;18593;51.426;7.030;2023-04-30T12:11:21;101138.25;;;15.43;45.94
32081;BME280;18593;51.426;7.030;2023-04-30T12:13:52;101139.66;;;15.46;45.82
32081;BME280;18593;51.426;7.030;2023-04-30T12:16:19;101133.94;;;15.42;44.76
32081;BME280;18593;51.426;7.030;2023-04-30T12:18:46;101122.72;;;15.45;44.51
32081;BME280;18593;51.426;7.030;2023-04-30T12:21:16;101133.94;;;15.42;44.86
32081;BME280;18593;51.426;7.030;2023-04-30T12:23:43;101132.50;;;15.40;43.92
32081;BME280;18593;51.426;7.030;2023-04-30T12:26:11;101127.22;;;15.33;44.58
32081;BME280;18593;51.426;7.030;2023-04-30T12:28:38;101124.69;;;15.38;44.50
32081;BME280;18593;51.426;7.030;2023-04-30T12:31:05;101119.44;;;15.43;45.22
32081;BME280;18593;51.426;7.030;2023-04-30T12:33:32;101113.97;;;15.50;45.24
32081;BME280;18593;51.426;7.030;2023-04-30T12:36:01;101121.34;;;15.55;44.58
32081;BME280;18593;51.426;7.030;2023-04-30T12:38:30;101113.91;;;15.57;44.40
32081;BME280;18593;51.426;7.030;2023-04-30T12:40:57;101110.16;;;15.58;43.50
32081;BME280;18593;51.426;7.030;2023-04-30T12:43:24;101121.66;;;15.65;44.10
32081;BME280;18593;51.426;7.030;2023-04-30T12:45:53;101110.56;;;15.73;44.11
32081;BME280;18593;51.426;7.030;2023-04-30T12:48:22;101107.88;;;15.73;43.20
32081;BME280;18593;51.426;7.030;2023-04-30T12:50:54;101105.44;;;15.72;43.14
32081;BME280;18593;51.426;7.030;2023-04-30T12:53:23;101110.09;;;15.76;43.76
32081;BME280;18593;51.426;7.030;2023-04-30T12:56:12;101119.22;;;15.75;43.93
32081;BME280;18593;51.426;7.030;2023-04-30T12:58:41;101105.78;;;15.75;44.51
32081;BME280;18593;51.426;7.030;2023-04-30T13:01:11;101094.56;;;15.78;43.76
32081;BME280;18593;51.426;7.030;2023-04-30T13:03:38;101101.13;;;15.82;44.10
32081;BME280;18593;51.426;7.030;2023-04-30T13:06:06;101094.56;;;15.78;43.83